createdAt,value
2023-04-18T00:02:15.372Z,72.81
2023-04-18T00:04:46.417Z,73.13
2023-04-18T00:07:17.797Z,73.41
2023-04-18T00:09:45.675Z,73.67
2023-04-18T00:12:14.403Z,73.89
2023-04-18T00:14:43.829Z,73.79
2023-04-18T00:17:13.287Z,73.40
2023-04-18T00:19:43.382Z,73.62
2023-04-18T00:22:11.696Z,73.31
2023-04-18T00:24:40.572Z,73.70
2023-04-18T00:27:08.501Z,73.50
2023-04-18T00:29:36.356Z,73.60
2023-04-18T00:32:04.291Z,73.90
2023-04-18T00:34:32.142Z,74.00
2023-04-18T00:37:00.125Z,74.47
2023-04-18T00:39:28.277Z,74.33
2023-04-18T00:41:56.347Z,74.20
2023-04-18T00:44:24.174Z,74.47
2023-04-18T00:46:52.067Z,74.38
2023-04-18T00:49:20.392Z,74.58
2023-04-18T00:51:49.312Z,74.73
2023-04-18T00:54:18.899Z,74.91
2023-04-18T00:56:47.101Z,74.88
2023-04-18T00:59:16.751Z,74.85
2023-04-18T01:01:45.137Z,75.24
2023-04-18T01:04:13.969Z,75.45
2023-04-18T14:22:30.486Z,67.49
2023-04-18T14:25:03.067Z,68.26
2023-04-18T14:27:38.162Z,68.27
2023-04-18T14:30:09.725Z,68.64
2023-04-18T14:32:41.217Z,68.48
2023-04-18T14:35:11.307Z,69.33
2023-04-18T14:37:44.128Z,69.32
2023-04-18T14:40:12.777Z,69.16
2023-04-18T14:42:41.569Z,66.96
2023-04-18T14:45:11.391Z,67.72
2023-04-18T14:47:39.605Z,67.47
2023-04-18T14:50:08.847Z,67.19
2023-04-18T14:52:36.838Z,66.99
2023-04-18T14:55:05.990Z,67.00
2023-04-18T14:57:38.326Z,67.52
2023-04-18T15:00:11.372Z,67.87
2023-04-18T15:02:40.090Z,67.40
2023-04-18T15:05:09.241Z,66.94
2023-04-18T15:07:37.975Z,67.06
2023-04-18T15:10:06.595Z,66.60
2023-04-18T15:12:35.057Z,65.99
2023-04-18T15:15:03.203Z,65.18
2023-04-18T15:17:31.194Z,65.62
2023-04-18T15:20:02.405Z,65.29
2023-04-18T15:22:30.456Z,65.99
2023-04-18T15:24:58.477Z,66.94
2023-04-18T15:27:26.654Z,66.90
2023-04-18T15:29:54.927Z,66.64
2023-04-18T15:32:23.300Z,67.42
2023-04-18T15:34:51.531Z,66.76
2023-04-18T15:37:19.711Z,66.76
2023-04-18T15:39:47.770Z,66.63
2023-04-18T15:42:15.659Z,66.76
2023-04-18T15:44:43.582Z,66.79
2023-04-18T15:47:11.608Z,66.50
2023-04-18T15:49:39.649Z,66.29
2023-04-18T15:52:08.381Z,66.50
2023-04-18T15:54:41.143Z,66.82
2023-04-18T15:57:10.331Z,66.23
2023-04-18T15:59:38.388Z,66.25
2023-04-18T16:02:07.349Z,66.64
2023-04-18T16:04:35.421Z,66.65
2023-04-18T16:07:03.532Z,66.24
2023-04-18T16:09:34.661Z,65.79
2023-04-18T16:12:05.889Z,66.13
2023-04-18T16:14:36.339Z,66.44
2023-04-18T16:17:04.801Z,66.01
2023-04-18T16:19:35.067Z,66.67
2023-04-18T16:22:07.162Z,66.50
2023-04-18T16:24:35.369Z,66.85
2023-04-18T16:27:03.750Z,66.86
2023-04-18T16:29:31.855Z,66.41
2023-04-18T16:31:59.826Z,65.98
2023-04-18T16:34:27.789Z,66.22
2023-04-18T16:36:55.828Z,66.57
2023-04-18T16:39:23.735Z,66.14
2023-04-18T16:41:51.652Z,66.19
2023-04-18T16:44:19.726Z,65.77
2023-04-18T16:46:47.867Z,65.58
2023-04-18T16:49:18.988Z,65.34
2023-04-18T16:51:47.452Z,65.80
2023-04-18T16:54:16.105Z,65.80
2023-04-18T16:56:47.252Z,66.10
2023-04-18T16:59:16.078Z,66.56
2023-04-18T17:01:44.436Z,66.19
2023-04-18T17:04:12.973Z,66.03
2023-04-18T17:06:43.238Z,65.95
2023-04-18T17:09:15.022Z,66.22
2023-04-18T17:11:44.820Z,65.91
2023-04-18T17:14:13.634Z,65.92
2023-04-18T17:16:42.585Z,66.08
2023-04-18T17:19:11.471Z,66.44
2023-04-18T17:21:40.202Z,65.73
2023-04-18T17:24:13.776Z,66.06
2023-04-18T17:26:42.135Z,66.36
2023-04-18T17:29:10.539Z,66.72
2023-04-18T17:31:39.204Z,66.53
2023-04-18T17:34:10.254Z,66.69
2023-04-18T17:36:39.156Z,67.13
2023-04-18T17:39:07.428Z,67.39
2023-04-18T17:41:39.101Z,67.74
2023-04-18T17:44:07.823Z,67.99
2023-04-18T17:46:36.541Z,68.13
2023-04-18T17:49:04.746Z,68.12
2023-04-18T17:51:32.996Z,68.31
2023-04-18T17:54:00.994Z,68.39
2023-04-18T17:56:30.515Z,68.84
2023-04-18T17:58:58.740Z,68.99
2023-04-18T18:01:30.155Z,68.96
2023-04-18T18:03:58.320Z,68.03
2023-04-18T18:06:27.854Z,67.50
2023-04-18T18:08:55.958Z,67.18
2023-04-18T18:11:24.038Z,67.98
2023-04-18T18:13:54.823Z,68.66
2023-04-18T18:16:24.598Z,69.36
2023-04-18T18:18:54.296Z,68.82
2023-04-18T18:21:22.862Z,68.65
2023-04-18T18:23:51.034Z,69.07
2023-04-18T18:26:19.212Z,69.37
2023-04-18T18:28:47.480Z,69.81
2023-04-18T18:31:16.828Z,70.11
2023-04-18T18:33:44.874Z,70.30
2023-04-18T18:36:12.846Z,70.75
2023-04-18T18:38:40.906Z,71.15
2023-04-18T18:41:09.273Z,71.42
2023-04-18T18:43:37.570Z,71.64
2023-04-18T18:46:05.691Z,72.04
2023-04-18T18:48:36.907Z,72.58
2023-04-18T18:51:05.156Z,73.11
2023-04-18T18:53:33.115Z,73.34
2023-04-18T18:56:01.515Z,73.16
2023-04-18T18:58:29.552Z,73.13
2023-04-18T19:00:58.938Z,73.42
2023-04-18T19:03:27.228Z,73.73
2023-04-18T19:05:56.537Z,73.75
2023-04-18T19:08:24.948Z,73.96
2023-04-18T19:10:53.348Z,73.98
2023-04-18T19:13:25.192Z,74.22
2023-04-18T19:15:53.293Z,74.48
2023-04-18T19:18:21.548Z,74.80
2023-04-18T19:20:50.395Z,74.98
2023-04-18T19:23:19.563Z,74.97
2023-04-18T19:25:47.666Z,74.66
2023-04-18T19:28:18.167Z,74.76
2023-04-18T19:30:46.737Z,74.79
2023-04-18T19:33:14.982Z,74.89
2023-04-18T19:35:43.180Z,74.90
2023-04-18T19:38:11.198Z,75.00
2023-04-18T19:40:39.471Z,74.96
2023-04-18T19:43:07.460Z,75.00
2023-04-18T19:45:35.991Z,74.88
2023-04-18T19:48:04.165Z,74.85
2023-04-18T19:50:32.446Z,75.01
2023-04-18T19:53:00.575Z,74.87
2023-04-18T19:55:28.684Z,75.01
2023-04-18T19:57:56.855Z,75.01
2023-04-18T20:00:25.096Z,75.26
2023-04-18T20:02:56.705Z,75.53
2023-04-18T20:05:24.912Z,75.64
2023-04-18T20:07:53.219Z,75.75
2023-04-18T20:10:22.413Z,75.84
2023-04-18T20:12:50.483Z,76.03
2023-04-18T20:15:18.659Z,76.23
2023-04-18T20:17:50.663Z,76.37
2023-04-18T20:20:18.829Z,76.50
2023-04-18T20:22:48.102Z,76.47
2023-04-18T20:25:16.558Z,76.69
2023-04-18T20:27:45.641Z,76.71
2023-04-18T20:30:14.163Z,76.78
2023-04-18T20:32:43.037Z,76.83
2023-04-18T20:35:11.389Z,76.94
2023-04-18T20:37:41.887Z,77.07
2023-04-18T20:40:10.578Z,77.11
2023-04-18T20:42:39.457Z,77.09
2023-04-18T20:45:11.435Z,77.29
2023-04-18T20:47:56.345Z,77.58
2023-04-18T20:50:34.214Z,77.70
2023-04-18T20:53:05.761Z,77.97
2023-04-18T20:55:34.031Z,78.21
2023-04-18T20:58:02.537Z,78.34
2023-04-18T21:00:31.948Z,78.43
2023-04-18T21:03:00.274Z,78.67
2023-04-18T21:05:29.038Z,78.76
2023-04-18T21:07:59.868Z,78.87
2023-04-18T21:10:28.002Z,79.04
2023-04-18T21:12:56.620Z,79.43
2023-04-18T21:15:33.347Z,79.55
2023-04-18T21:18:06.421Z,79.87
2023-04-18T21:20:39.550Z,79.95
2023-04-18T21:23:10.600Z,80.00
2023-04-18T21:25:39.562Z,80.15
2023-04-18T21:28:08.661Z,80.14
2023-04-18T21:30:37.444Z,80.25
2023-04-18T21:33:09.533Z,80.26
2023-04-18T21:35:37.821Z,80.38
2023-04-18T21:38:09.141Z,80.56
2023-04-18T21:40:39.825Z,80.64
2023-04-18T21:43:07.892Z,80.75
2023-04-18T21:45:35.874Z,80.91
2023-04-18T21:48:05.291Z,81.05
2023-04-18T21:50:34.248Z,81.23
2023-04-18T21:53:10.876Z,81.32
2023-04-18T21:55:41.711Z,81.60
2023-04-18T22:01:01.264Z,82.00
2023-04-18T22:03:30.056Z,82.25
2023-04-18T22:05:58.932Z,82.31
2023-04-18T22:08:27.054Z,82.40
2023-04-18T22:10:56.505Z,82.56
2023-04-18T22:13:26.001Z,82.71
2023-04-18T22:15:53.985Z,82.93
2023-04-18T22:18:21.924Z,83.08
2023-04-18T22:20:50.901Z,83.23
2023-04-18T22:23:18.850Z,83.40
2023-04-18T22:25:47.069Z,83.55
2023-04-18T22:28:15.307Z,83.70
2023-04-18T22:30:43.941Z,83.84
2023-04-18T22:33:12.076Z,83.98
2023-04-18T22:35:40.052Z,84.09
2023-04-18T22:38:08.032Z,84.21
2023-04-18T22:40:36.184Z,84.01
2023-04-18T22:43:04.157Z,83.93
2023-04-18T22:45:33.349Z,84.02
2023-04-18T22:48:04.700Z,84.11
2023-04-18T22:50:32.822Z,84.19
2023-04-18T22:53:00.868Z,84.23
2023-04-18T22:55:28.843Z,84.42
2023-04-18T22:57:57.325Z,84.54
2023-04-18T23:00:25.473Z,84.70
2023-04-18T23:02:53.728Z,84.93
2023-04-18T23:05:24.170Z,85.18
2023-04-18T23:07:52.161Z,85.37
2023-04-18T23:10:20.682Z,85.57
2023-04-18T23:12:48.735Z,85.71
2023-04-18T23:15:16.755Z,85.88
2023-04-18T23:17:44.751Z,85.86
2023-04-18T23:20:13.758Z,86.05
2023-04-18T23:22:41.637Z,86.09
2023-04-18T23:25:09.927Z,86.29
2023-04-18T23:27:37.856Z,86.48
2023-04-18T23:30:06.756Z,86.62
2023-04-18T23:32:35.773Z,86.77
2023-04-18T23:35:06.930Z,86.81
2023-04-18T23:37:35.041Z,86.87
2023-04-18T23:40:06.837Z,86.96
2023-04-18T23:42:36.953Z,86.93
2023-04-18T23:45:05.976Z,86.98
2023-04-18T23:47:37.385Z,86.89
2023-04-18T23:50:05.721Z,86.95
2023-04-18T23:52:33.861Z,87.10
2023-04-18T23:55:02.396Z,87.30
2023-04-18T23:57:31.205Z,87.41
